Time,TemperatureF,DewpointF,PressureIn,WindDirection,WindDirectionDegrees,WindSpeedMPH,WindSpeedGustMPH,Humidity,HourlyPrecipIn,Conditions,Clouds,dailyrainin,SoftwareType,DateUTC
2013-01-20 07:42:00,45.1,34.0,29.67,NW,315,0.0,-999.0,65,-99.99,,,0.00,Acu-Link.com,2013-01-20 12:42:00,
2013-01-20 07:58:00,44.8,34.1,29.67,WSW,247,3.2,-999.0,66,-99.99,,,0.00,Acu-Link.com,2013-01-20 12:58:00,
2013-01-20 08:15:00,45.5,34.8,29.69,SSW,202,2.7,-999.0,66,-99.99,,,0.00,Acu-Link.com,2013-01-20 13:15:00,
2013-01-20 08:34:00,44.8,34.1,29.69,SSW,202,3.2,-999.0,66,-99.99,,,0.00,Acu-Link.com,2013-01-20 13:34:00,
2013-01-20 09:10:00,44.8,34.1,29.72,SW,225,7.3,-999.0,66,-99.99,,,0.00,Acu-Link.com,2013-01-20 14:10:00,
2013-01-20 09:32:00,44.8,30.9,29.73,SSW,202,6.3,-999.0,58,-99.99,,,0.00,Acu-Link.com,2013-01-20 14:32:00,
2013-01-20 09:48:00,44.6,22.9,29.75,SW,225,6.3,-999.0,42,-99.99,,,0.00,Acu-Link.com,2013-01-20 14:48:00,
2013-01-20 10:22:00,44.4,20.4,29.77,SW,225,7.3,-999.0,38,-99.99,,,0.00,Acu-Link.com,2013-01-20 15:22:00,
2013-01-20 10:37:00,44.6,18.7,29.78,SSE,157,9.4,-999.0,35,-99.99,,,0.00,Acu-Link.com,2013-01-20 15:37:00,
2013-01-20 10:52:00,44.1,15.4,29.78,West,270,6.8,-999.0,31,-99.99,,,0.00,Acu-Link.com,2013-01-20 15:52:00,
2013-01-20 11:08:00,43.7,15.1,29.79,South,180,8.9,-999.0,31,-99.99,,,0.00,Acu-Link.com,2013-01-20 16:08:00,
2013-01-20 11:24:00,43.5,15.6,29.79,West,270,7.3,-999.0,32,-99.99,,,0.00,Acu-Link.com,2013-01-20 16:24:00,
2013-01-20 11:39:00,42.6,16.9,29.79,West,270,6.3,-999.0,35,-99.99,,,0.00,Acu-Link.com,2013-01-20 16:39:00,
2013-01-20 11:55:00,43.5,16.3,29.80,West,270,6.8,-999.0,33,-99.99,,,0.00,Acu-Link.com,2013-01-20 16:55:00,
2013-01-20 12:10:00,41.9,14.9,29.80,West,270,7.8,-999.0,33,-99.99,,,0.00,Acu-Link.com,2013-01-20 17:10:00,
2013-01-20 12:25:00,41.5,15.3,29.79,WSW,247,2.7,-999.0,34,-99.99,,,0.00,Acu-Link.com,2013-01-20 17:25:00,
2013-01-20 12:40:00,41.7,15.4,29.79,South,180,9.9,-999.0,34,-99.99,,,0.00,Acu-Link.com,2013-01-20 17:40:00,
2013-01-20 12:56:00,42.1,16.4,29.80,NNE,22,11.9,-999.0,35,-99.99,,,0.00,Acu-Link.com,2013-01-20 17:56:00,
2013-01-20 14:57:00,41.2,18.1,29.83,West,270,0.0,-999.0,39,-99.99,,,0.00,Acu-Link.com,2013-01-20 19:57:00,
2013-01-20 15:13:00,39.9,14.5,29.83,NW,315,5.8,-999.0,35,-99.99,,,0.00,Acu-Link.com,2013-01-20 20:13:00,
2013-01-20 15:37:00,39.9,14.5,29.83,West,270,6.3,-999.0,35,-99.99,,,0.00,Acu-Link.com,2013-01-20 20:37:00,
2013-01-20 15:59:00,39.9,14.5,29.84,SW,225,6.3,-999.0,35,-99.99,,,0.00,Acu-Link.com,2013-01-20 20:59:00,
2013-01-20 18:17:00,32.5,13.5,29.89,WNW,292,0.0,-999.0,45,-99.99,,,0.00,Acu-Link.com,2013-01-20 23:17:00,
2013-01-20 18:33:00,31.5,13.6,29.89,ENE,67,0.0,-999.0,47,-99.99,,,0.00,Acu-Link.com,2013-01-20 23:33:00,
2013-01-20 18:48:00,30.6,14.2,29.89,ENE,67,0.0,-999.0,50,-99.99,,,0.00,Acu-Link.com,2013-01-20 23:48:00,
2013-01-20 19:03:00,29.8,15.6,29.89,ENE,67,0.0,-999.0,55,-99.99,,,0.00,Acu-Link.com,2013-01-21 00:03:00,
2013-01-20 19:18:00,29.7,14.7,29.89,WNW,292,0.0,-999.0,53,-99.99,,,0.00,Acu-Link.com,2013-01-21 00:18:00,
2013-01-20 19:33:00,29.3,15.2,29.89,West,270,0.0,-999.0,55,-99.99,,,0.00,Acu-Link.com,2013-01-21 00:33:00,
2013-01-20 19:48:00,29.3,14.7,29.90,NW,315,0.0,-999.0,54,-99.99,,,0.00,Acu-Link.com,2013-01-21 00:48:00,
2013-01-20 20:04:00,29.1,15.0,29.89,West,270,0.0,-999.0,55,-99.99,,,0.00,Acu-Link.com,2013-01-21 01:04:00,
2013-01-20 20:19:00,28.6,14.9,29.89,WSW,247,0.0,-999.0,56,-99.99,,,0.00,Acu-Link.com,2013-01-21 01:19:00,
2013-01-20 20:34:00,28.8,14.7,29.89,WNW,292,0.0,-999.0,55,-99.99,,,0.00,Acu-Link.com,2013-01-21 01:34:00,
2013-01-20 20:49:00,28.2,14.5,29.89,West,270,0.0,-999.0,56,-99.99,,,0.00,Acu-Link.com,2013-01-21 01:49:00,
2013-01-20 21:04:00,28.0,15.2,29.91,SE,135,2.2,-999.0,58,-99.99,,,0.00,Acu-Link.com,2013-01-21 02:04:00,
2013-01-20 21:25:00,27.9,15.1,29.90,NW,315,0.0,-999.0,58,-99.99,,,0.00,Acu-Link.com,2013-01-21 02:25:00,
2013-01-20 21:40:00,28.0,15.5,29.90,WNW,292,0.0,-999.0,59,-99.99,,,0.00,Acu-Link.com,2013-01-21 02:40:00,
2013-01-20 21:55:00,28.2,15.7,29.91,West,270,0.0,-999.0,59,-99.99,,,0.00,Acu-Link.com,2013-01-21 02:55:00,
2013-01-20 22:10:00,27.9,15.8,29.91,NNW,337,0.0,-999.0,60,-99.99,,,0.00,Acu-Link.com,2013-01-21 03:10:00,
2013-01-20 22:31:00,27.5,15.8,29.91,NW,315,0.0,-999.0,61,-99.99,,,0.00,Acu-Link.com,2013-01-21 03:31:00,
2013-01-20 22:49:00,27.1,16.2,29.91,West,270,0.0,-999.0,63,-99.99,,,0.00,Acu-Link.com,2013-01-21 03:49:00,
2013-01-20 23:09:00,27.1,16.2,29.90,WNW,292,0.0,-999.0,63,-99.99,,,0.00,Acu-Link.com,2013-01-21 04:09:00,
2013-01-20 23:24:00,27.1,16.2,29.90,NW,315,0.0,-999.0,63,-99.99,,,0.00,Acu-Link.com,2013-01-21 04:24:00,
2013-01-20 23:39:00,26.8,16.3,29.90,NW,315,0.0,-999.0,64,-99.99,,,0.00,Acu-Link.com,2013-01-21 04:39:00,
2013-01-20 23:58:00,26.4,16.3,29.89,NW,315,0.0,-999.0,65,-99.99,,,0.00,Acu-Link.com,2013-01-21 04:58:00,